Columbia — WYR2092 — position and weather

sailwx.info

Track history (hours):
 
Tides and Currents Weather Stations Pressure Air Temp Water Temp Dewpoint Dewpoint Depression Visibility Wind Speed Wind Dir Waves Ship Positions

Columbia

More information available from US FCC via Universal Licensing System and Coast Guard Vessel Documentation Center.

Last reported at 2014-Aug-30 23:33 UTC. Time now 2014-Sep-03 05:02 UTC.
Position N 52°14' W 128°13'.

Type: Ship. MMSI: 367144000.

Date/timePositionNaut miles runAvg speedWind from/ knotsBaromVisibWave heightAir tempDewpointWater temp
2014-Aug-30 23:33N 52°14' W 128°13'12 9.7
2014-Aug-30 22:22N 52°05' W 128°02'1113.9
2014-Aug-30 21:33N 51°54' W 127°56'2117.1
2014-Aug-30 20:18N 51°33' W 127°51'1216.1
2014-Aug-30 19:33N 51°21' W 127°52'1515.0
2014-Aug-30 18:33N 51°07' W 127°44'1716.5
2014-Aug-30 17:34N 50°55' W 127°25'1717.0
2014-Aug-30 16:34N 50°46' W 127°03'9713.8
2014-Aug-30 09:32N 49°51' W 124°58'1514.2
2014-Aug-30 08:28N 49°40' W 124°42'1415.0
2014-Aug-30 07:33N 49°31' W 124°27'1514.6
2014-Aug-30 06:33N 49°24' W 124°07'1514.8
2014-Aug-30 05:33N 49°19' W 123°45'1514.9
2014-Aug-30 04:33N 49°09' W 123°29'1616.1
2014-Aug-30 03:33N 48°58' W 123°11'1716.8
2014-Aug-30 02:33N 48°47' W 122°51'1413.5
2014-Aug-30 01:33N 48°40' W 122°34'4 1.6
2014-Aug-29 23:17N 48°43' W 122°31'0 0.0
2014-Aug-29 20:29N 48°43' W 122°31'0 0.0
2014-Aug-29 18:29N 48°43' W 122°31'0 0.0
2014-Aug-29 17:29N 48°43' W 122°31'0 0.0
2014-Aug-29 16:29N 48°43' W 122°31'0 0.0
2014-Aug-29 15:23N 48°43' W 122°31'0 0.2
2014-Aug-29 14:33N 48°44' W 122°31'9 9.0
2014-Aug-29 13:33N 48°42' W 122°44'1515.4
2014-Aug-29 12:33N 48°52' W 123°02'1616.2
2014-Aug-29 11:34N 49°01' W 123°22'1616.3
2014-Aug-29 10:33N 49°12' W 123°41'1716.8
2014-Aug-29 09:34N 49°20' W 124°04'1716.7
2014-Aug-29 08:34N 49°29' W 124°25'1716.7
2014-Aug-29 07:32N 49°41' W 124°43'7812.8
2014-Aug-29 01:27N 50°30' W 126°19'1415.5
2014-Aug-29 00:31N 50°33' W 126°41'1616.9
2014-Aug-28 23:33N 50°44' W 126°59'1716.9
2014-Aug-28 22:33N 50°54' W 127°22'1716.5
2014-Aug-28 21:34N 51°05' W 127°42'1615.7
2014-Aug-28 20:33N 51°19' W 127°52'4016.4
2014-Aug-28 18:06N 51°59' W 127°56'1012.9
2014-Aug-28 17:21N 52°06' W 128°07'5 6.2
2014-Aug-28 16:33N 52°11' W 128°07'14514.5
2014-Aug-28 06:33N 54°10' W 130°25'1616.3
2014-Aug-28 05:33N 54°24' W 130°37'  
2014-Aug-23 23:32N 52°16' W 128°26'1211.8
2014-Aug-23 22:28N 52°09' W 128°08'1111.7
2014-Aug-23 21:33N 52°02' W 127°55'3417.0
2014-Aug-23 19:33N 51°28' W 127°51'23414.6
2014-Aug-23 03:33N 48°58' W 123°10'1615.9
2014-Aug-23 02:33N 48°48' W 122°52'1514.9
2014-Aug-23 01:33N 48°38' W 122°34'6 5.2
2014-Aug-23 00:28N 48°43' W 122°31'0 0.0
2014-Aug-22 23:28N 48°43' W 122°31'0 0.0
2014-Aug-22 22:28N 48°43' W 122°31'0 0.0
2014-Aug-22 20:22N 48°43' W 122°31'0 0.0
2014-Aug-22 19:22N 48°43' W 122°31'1 0.1
2014-Aug-22 14:33N 48°43' W 122°32'9 8.7
2014-Aug-22 13:33N 48°42' W 122°45'1515.5
2014-Aug-22 12:34N 48°52' W 123°03'1716.9
2014-Aug-22 11:34N 49°03' W 123°23'1716.6
2014-Aug-22 10:34N 49°15' W 123°40'1616.1
2014-Aug-22 09:33N 49°23' W 124°01'1616.1
2014-Aug-22 08:33N 49°29' W 124°24'2117.0
2014-Aug-22 07:18N 49°44' W 124°48'7412.4
2014-Aug-22 01:19N 50°30' W 126°19'1315.3
2014-Aug-22 00:30N 50°31' W 126°38'1414.8
2014-Aug-21 23:33N 50°41' W 126°54'1616.3
2014-Aug-21 22:33N 50°51' W 127°15'1616.2
2014-Aug-21 21:33N 51°00' W 127°36'1615.9
2014-Aug-21 20:33N 51°13' W 127°51'1716.6
2014-Aug-21 19:33N 51°29' W 127°51'3416.7
2014-Aug-21 17:32N 52°03' W 127°55'1110.8
2014-Aug-21 16:33N 52°10' W 128°08'1412.8
2014-Aug-21 15:29N 52°17' W 128°27'13214.7
2014-Aug-21 06:32N 54°09' W 130°24'1616.3
2014-Aug-21 05:33N 54°23' W 130°37'1616.2
2014-Aug-21 04:33N 54°38' W 130°45'  
Track history (hours):
 
Tides and Currents Weather Stations Pressure Air Temp Water Temp Dewpoint Dewpoint Depression Visibility Wind Speed Wind Dir Waves Ship Positions

Columbia

More information available from US FCC via Universal Licensing System and Coast Guard Vessel Documentation Center.

Last reported at 2014-Aug-30 23:33 UTC. Time now 2014-Sep-03 05:02 UTC.
Position N 52°14' W 128°13'.

Type: Ship. MMSI: 367144000.

Date/timePositionNaut miles runAvg speedWind from/ knotsBaromVisibWave heightAir tempDewpointWater temp
2014-Aug-30 23:33N 52°14' W 128°13'12 9.7
2014-Aug-30 22:22N 52°05' W 128°02'1113.9
2014-Aug-30 21:33N 51°54' W 127°56'2117.1
2014-Aug-30 20:18N 51°33' W 127°51'1216.1
2014-Aug-30 19:33N 51°21' W 127°52'1515.0
2014-Aug-30 18:33N 51°07' W 127°44'1716.5
2014-Aug-30 17:34N 50°55' W 127°25'1717.0
2014-Aug-30 16:34N 50°46' W 127°03'9713.8
2014-Aug-30 09:32N 49°51' W 124°58'1514.2
2014-Aug-30 08:28N 49°40' W 124°42'1415.0
2014-Aug-30 07:33N 49°31' W 124°27'1514.6
2014-Aug-30 06:33N 49°24' W 124°07'1514.8
2014-Aug-30 05:33N 49°19' W 123°45'1514.9
2014-Aug-30 04:33N 49°09' W 123°29'1616.1
2014-Aug-30 03:33N 48°58' W 123°11'1716.8
2014-Aug-30 02:33N 48°47' W 122°51'1413.5
2014-Aug-30 01:33N 48°40' W 122°34'4 1.6
2014-Aug-29 23:17N 48°43' W 122°31'0 0.0
2014-Aug-29 20:29N 48°43' W 122°31'0 0.0
2014-Aug-29 18:29N 48°43' W 122°31'0 0.0
2014-Aug-29 17:29N 48°43' W 122°31'0 0.0
2014-Aug-29 16:29N 48°43' W 122°31'0 0.0
2014-Aug-29 15:23N 48°43' W 122°31'0 0.2
2014-Aug-29 14:33N 48°44' W 122°31'9 9.0
2014-Aug-29 13:33N 48°42' W 122°44'1515.4
2014-Aug-29 12:33N 48°52' W 123°02'1616.2
2014-Aug-29 11:34N 49°01' W 123°22'1616.3
2014-Aug-29 10:33N 49°12' W 123°41'1716.8
2014-Aug-29 09:34N 49°20' W 124°04'1716.7
2014-Aug-29 08:34N 49°29' W 124°25'1716.7
2014-Aug-29 07:32N 49°41' W 124°43'7812.8
2014-Aug-29 01:27N 50°30' W 126°19'1415.5
2014-Aug-29 00:31N 50°33' W 126°41'1616.9
2014-Aug-28 23:33N 50°44' W 126°59'1716.9
2014-Aug-28 22:33N 50°54' W 127°22'1716.5
2014-Aug-28 21:34N 51°05' W 127°42'1615.7
2014-Aug-28 20:33N 51°19' W 127°52'4016.4
2014-Aug-28 18:06N 51°59' W 127°56'1012.9
2014-Aug-28 17:21N 52°06' W 128°07'5 6.2
2014-Aug-28 16:33N 52°11' W 128°07'14514.5
2014-Aug-28 06:33N 54°10' W 130°25'1616.3
2014-Aug-28 05:33N 54°24' W 130°37'  
2014-Aug-23 23:32N 52°16' W 128°26'1211.8
2014-Aug-23 22:28N 52°09' W 128°08'1111.7
2014-Aug-23 21:33N 52°02' W 127°55'3417.0
2014-Aug-23 19:33N 51°28' W 127°51'23414.6
2014-Aug-23 03:33N 48°58' W 123°10'1615.9
2014-Aug-23 02:33N 48°48' W 122°52'1514.9
2014-Aug-23 01:33N 48°38' W 122°34'6 5.2
2014-Aug-23 00:28N 48°43' W 122°31'0 0.0
2014-Aug-22 23:28N 48°43' W 122°31'0 0.0
2014-Aug-22 22:28N 48°43' W 122°31'0 0.0
2014-Aug-22 20:22N 48°43' W 122°31'0 0.0
2014-Aug-22 19:22N 48°43' W 122°31'1 0.1
2014-Aug-22 14:33N 48°43' W 122°32'9 8.7
2014-Aug-22 13:33N 48°42' W 122°45'1515.5
2014-Aug-22 12:34N 48°52' W 123°03'1716.9
2014-Aug-22 11:34N 49°03' W 123°23'1716.6
2014-Aug-22 10:34N 49°15' W 123°40'1616.1
2014-Aug-22 09:33N 49°23' W 124°01'1616.1
2014-Aug-22 08:33N 49°29' W 124°24'2117.0
2014-Aug-22 07:18N 49°44' W 124°48'7412.4
2014-Aug-22 01:19N 50°30' W 126°19'1315.3
2014-Aug-22 00:30N 50°31' W 126°38'1414.8
2014-Aug-21 23:33N 50°41' W 126°54'1616.3
2014-Aug-21 22:33N 50°51' W 127°15'1616.2
2014-Aug-21 21:33N 51°00' W 127°36'1615.9
2014-Aug-21 20:33N 51°13' W 127°51'1716.6
2014-Aug-21 19:33N 51°29' W 127°51'3416.7
2014-Aug-21 17:32N 52°03' W 127°55'1110.8
2014-Aug-21 16:33N 52°10' W 128°08'1412.8
2014-Aug-21 15:29N 52°17' W 128°27'13214.7
2014-Aug-21 06:32N 54°09' W 130°24'1616.3
2014-Aug-21 05:33N 54°23' W 130°37'1616.2
2014-Aug-21 04:33N 54°38' W 130°45'  

Dump ship's entire track history